createdAt,value
2018-09-14T00:02:22.079Z,18.40
2018-09-14T00:04:50.186Z,18.40
2018-09-14T00:07:18.278Z,18.40
2018-09-14T00:09:46.378Z,18.30
2018-09-14T00:12:14.482Z,18.30
2018-09-14T00:14:42.585Z,18.30
2018-09-14T00:17:10.686Z,18.30
2018-09-14T00:19:38.805Z,18.30
2018-09-14T00:22:07.106Z,18.20
2018-09-14T00:24:35.227Z,18.30
2018-09-14T00:27:03.336Z,18.30
2018-09-14T00:29:31.449Z,18.20
2018-09-14T00:31:59.546Z,18.20
2018-09-14T00:34:27.669Z,18.20
2018-09-14T00:36:55.769Z,18.20
2018-09-14T00:39:23.876Z,18.10
2018-09-14T00:41:51.974Z,18.00
2018-09-14T00:44:20.119Z,18.00
2018-09-14T00:46:48.217Z,18.00
2018-09-14T00:49:16.343Z,17.90
2018-09-14T00:51:44.442Z,18.00
2018-09-14T00:54:12.545Z,18.00
2018-09-14T00:56:40.651Z,17.90
2018-09-14T00:59:08.762Z,18.00
2018-09-14T01:01:36.862Z,18.00
2018-09-14T01:04:04.975Z,18.00
2018-09-14T01:06:33.075Z,18.00
2018-09-14T01:09:01.178Z,18.00
2018-09-14T01:11:29.302Z,18.10
2018-09-14T01:13:57.402Z,18.10
2018-09-14T01:16:25.486Z,18.10
2018-09-14T01:18:53.586Z,18.10
2018-09-14T01:21:21.918Z,18.10
2018-09-14T01:23:50.026Z,18.20
2018-09-14T01:26:18.114Z,18.20
2018-09-14T01:28:46.222Z,18.10
2018-09-14T01:31:14.303Z,18.20
2018-09-14T01:33:42.407Z,18.20
2018-09-14T01:36:10.533Z,18.20
2018-09-14T01:38:38.618Z,18.20
2018-09-14T01:41:06.733Z,18.20
2018-09-14T01:43:34.881Z,18.20
2018-09-14T01:46:02.991Z,18.30
2018-09-14T01:48:31.087Z,18.20
2018-09-14T01:50:59.182Z,18.20
2018-09-14T01:53:27.278Z,18.10
2018-09-14T01:55:55.379Z,18.10
2018-09-14T01:58:23.479Z,18.10
2018-09-14T02:00:51.566Z,18.20
2018-09-14T02:03:19.659Z,18.10
2018-09-14T02:05:47.753Z,18.20
2018-09-14T02:08:15.857Z,18.30
2018-09-14T02:10:43.958Z,18.30
2018-09-14T02:13:12.044Z,18.20
2018-09-14T02:15:40.142Z,18.20
2018-09-14T02:18:08.233Z,18.10
2018-09-14T02:20:36.326Z,18.10
2018-09-14T02:23:04.413Z,18.20
2018-09-14T02:25:32.563Z,18.20
2018-09-14T02:28:00.622Z,18.20
2018-09-14T02:30:28.718Z,18.20
2018-09-14T02:32:56.810Z,18.20
2018-09-14T02:35:24.911Z,18.20
2018-09-14T02:37:53.003Z,18.10
2018-09-14T02:40:21.097Z,18.10
2018-09-14T02:42:49.186Z,18.10
2018-09-14T02:45:17.366Z,18.10
2018-09-14T02:47:45.454Z,18.10
2018-09-14T02:50:13.571Z,18.10
2018-09-14T02:52:41.660Z,18.00
2018-09-14T02:55:09.780Z,18.10
2018-09-14T02:57:37.870Z,18.10
2018-09-14T03:00:06.428Z,18.00
2018-09-14T03:02:34.460Z,18.00
2018-09-14T03:05:02.558Z,18.00
2018-09-14T03:07:30.668Z,18.00
2018-09-14T03:09:58.766Z,18.00
2018-09-14T03:12:27.222Z,18.00
2018-09-14T03:14:55.338Z,18.00
2018-09-14T03:17:23.418Z,18.00
2018-09-14T03:19:51.531Z,17.90
2018-09-14T03:22:19.619Z,18.00
2018-09-14T03:24:47.725Z,18.00
2018-09-14T03:27:15.814Z,18.00
2018-09-14T03:29:43.912Z,18.00
2018-09-14T03:32:12.029Z,17.90
2018-09-14T03:34:40.086Z,17.90
2018-09-14T03:37:08.233Z,17.90
2018-09-14T03:39:36.331Z,17.80
2018-09-14T03:42:04.802Z,17.80
2018-09-14T03:44:32.886Z,17.80
2018-09-14T03:47:00.990Z,17.80
2018-09-14T03:49:29.084Z,17.80
2018-09-14T03:51:57.202Z,17.70
2018-09-14T03:54:25.295Z,17.70
2018-09-14T03:56:53.394Z,17.70
2018-09-14T03:59:21.489Z,17.60
2018-09-14T04:01:49.583Z,17.60
2018-09-14T04:04:17.687Z,17.60
2018-09-14T04:06:45.778Z,17.60
2018-09-14T04:09:13.866Z,17.60
2018-09-14T04:11:42.160Z,17.50
2018-09-14T04:14:10.262Z,17.50
2018-09-14T04:16:38.366Z,17.50
2018-09-14T04:19:06.447Z,17.50
2018-09-14T04:21:35.703Z,17.50
2018-09-14T04:24:04.069Z,17.50
2018-09-14T04:26:32.175Z,17.50
2018-09-14T04:29:01.006Z,17.50
2018-09-14T04:31:29.498Z,17.50
2018-09-14T04:33:57.649Z,17.50
2018-09-14T04:36:25.750Z,17.60
2018-09-14T04:38:53.854Z,17.60
2018-09-14T04:41:21.951Z,17.50
2018-09-14T04:43:50.034Z,17.50
2018-09-14T04:46:18.158Z,17.50
2018-09-14T04:48:46.250Z,17.50
2018-09-14T04:51:14.378Z,17.50
2018-09-14T04:53:42.450Z,17.50
2018-09-14T04:56:11.124Z,17.50
2018-09-14T04:58:39.387Z,17.50
2018-09-14T05:01:07.499Z,17.50
2018-09-14T05:03:35.670Z,17.60
2018-09-14T05:06:03.782Z,17.50
2018-09-14T05:08:31.871Z,17.50
2018-09-14T05:11:00.178Z,17.50
2018-09-14T05:13:28.266Z,17.60
2018-09-14T05:15:56.372Z,17.60
2018-09-14T05:18:24.466Z,17.60
2018-09-14T05:20:52.739Z,17.60
2018-09-14T05:23:20.843Z,17.60
2018-09-14T05:25:48.950Z,17.60
2018-09-14T05:28:17.059Z,17.60
2018-09-14T05:30:45.173Z,17.60
2018-09-14T05:33:13.283Z,17.60
2018-09-14T05:35:41.373Z,17.60
2018-09-14T05:38:09.509Z,17.60
2018-09-14T05:40:37.593Z,17.60
2018-09-14T05:43:05.719Z,17.70
2018-09-14T05:45:33.840Z,17.70
2018-09-14T05:48:01.932Z,17.70
2018-09-14T05:50:30.022Z,17.60
2018-09-14T05:52:58.146Z,17.60
2018-09-14T05:55:26.249Z,17.60
2018-09-14T05:57:54.350Z,17.60
2018-09-14T06:00:25.598Z,17.60
2018-09-14T06:02:53.714Z,17.60
2018-09-14T06:05:21.794Z,17.70
2018-09-14T06:07:49.884Z,17.80
2018-09-14T06:10:17.954Z,17.80
2018-09-14T06:12:46.043Z,17.90
2018-09-14T06:15:14.130Z,17.90
2018-09-14T06:17:42.221Z,17.90
2018-09-14T06:20:10.310Z,17.90
2018-09-14T06:22:38.469Z,17.80
2018-09-14T06:25:06.610Z,17.80
2018-09-14T06:27:35.269Z,17.80
2018-09-14T06:30:03.367Z,17.80
2018-09-14T06:32:31.478Z,17.80
2018-09-14T06:34:59.674Z,17.70
2018-09-14T06:37:27.855Z,17.80
2018-09-14T06:39:55.929Z,17.80
2018-09-14T06:42:24.044Z,17.90
2018-09-14T06:44:52.385Z,17.90
2018-09-14T06:47:20.733Z,18.00
2018-09-14T06:49:49.243Z,18.00
2018-09-14T06:52:17.891Z,18.00
2018-09-14T06:54:46.162Z,18.10
2018-09-14T06:57:14.666Z,18.10
2018-09-14T06:59:42.902Z,18.20
2018-09-14T07:02:11.031Z,18.20
2018-09-14T07:04:39.113Z,18.20
2018-09-14T07:07:07.244Z,18.20
2018-09-14T07:09:35.315Z,18.20
2018-09-14T07:12:03.402Z,18.20
2018-09-14T07:14:31.501Z,18.30
2018-09-14T07:16:59.630Z,18.20
2018-09-14T07:19:27.746Z,18.20
2018-09-14T07:21:56.002Z,18.20
2018-09-14T07:24:24.460Z,18.20
2018-09-14T07:26:52.576Z,18.20
2018-09-14T07:29:20.708Z,18.30
2018-09-14T07:31:48.932Z,18.40
2018-09-14T07:34:16.955Z,18.50
2018-09-14T07:36:45.412Z,18.60
2018-09-14T07:39:13.494Z,18.70
2018-09-14T07:41:41.782Z,18.70
2018-09-14T07:44:09.902Z,18.80
2018-09-14T07:46:37.986Z,18.90
2018-09-14T07:49:06.206Z,18.90
2018-09-14T07:51:34.302Z,18.90
2018-09-14T07:54:02.398Z,18.90
2018-09-14T07:56:30.485Z,19.00
2018-09-14T07:58:58.570Z,19.00
2018-09-14T08:01:26.941Z,19.10
2018-09-14T08:03:55.023Z,19.10
2018-09-14T08:06:23.165Z,19.10
2018-09-14T08:08:51.274Z,19.10
2018-09-14T08:11:19.353Z,19.10
2018-09-14T08:13:47.465Z,19.20
2018-09-14T08:16:15.666Z,19.20
2018-09-14T08:18:43.741Z,19.20
2018-09-14T08:21:11.952Z,19.20
2018-09-14T08:23:39.914Z,19.20
2018-09-14T08:26:08.012Z,19.30
2018-09-14T08:28:36.116Z,19.30
2018-09-14T08:31:04.206Z,19.40
2018-09-14T08:33:32.293Z,19.40
2018-09-14T08:36:00.381Z,19.50
2018-09-14T08:38:28.497Z,19.60
2018-09-14T08:40:56.576Z,19.70
2018-09-14T08:43:24.726Z,19.80
2018-09-14T08:45:52.803Z,19.90
2018-09-14T08:48:20.901Z,19.80
2018-09-14T08:50:49.166Z,19.70
2018-09-14T08:53:17.262Z,19.70
2018-09-14T08:55:45.346Z,19.80
2018-09-14T08:58:13.517Z,19.80
2018-09-14T09:00:41.582Z,19.90
2018-09-14T09:03:09.625Z,20.00
2018-09-14T09:05:37.903Z,20.00
2018-09-14T09:08:06.108Z,20.10
2018-09-14T09:10:34.185Z,20.20
2018-09-14T09:13:02.295Z,20.30
2018-09-14T09:15:30.380Z,20.40
2018-09-14T09:17:58.478Z,20.50
2018-09-14T09:20:26.630Z,20.50
2018-09-14T09:22:54.732Z,20.50
2018-09-14T09:25:22.810Z,20.60
2018-09-14T09:27:50.923Z,20.60
2018-09-14T09:30:19.010Z,20.80
2018-09-14T09:32:47.098Z,20.90
2018-09-14T09:35:15.196Z,20.90
2018-09-14T09:37:43.298Z,20.90
2018-09-14T09:40:11.393Z,21.10
2018-09-14T09:42:39.484Z,21.20
2018-09-14T09:45:07.574Z,21.30
2018-09-14T09:47:35.666Z,21.30
2018-09-14T09:50:03.834Z,21.40
2018-09-14T09:52:31.930Z,21.40
2018-09-14T09:55:00.026Z,21.40
2018-09-14T09:57:28.109Z,21.40
2018-09-14T09:59:56.210Z,21.50
2018-09-14T10:04:36.120Z,21.60
2018-09-14T10:07:04.200Z,21.70
2018-09-14T10:09:32.291Z,21.70
2018-09-14T10:12:00.378Z,21.80
2018-09-14T10:14:28.492Z,21.90
2018-09-14T10:16:56.570Z,21.90
2018-09-14T10:19:24.685Z,22.00
2018-09-14T10:21:52.807Z,21.90
2018-09-14T10:24:20.870Z,21.90
2018-09-14T10:26:48.998Z,22.00
2018-09-14T10:29:17.073Z,23.00
2018-09-14T10:31:45.153Z,22.00
2018-09-14T10:34:13.274Z,22.10
2018-09-14T10:36:41.370Z,22.30
2018-09-14T10:39:10.479Z,22.40
2018-09-14T10:41:38.558Z,22.40
2018-09-14T10:44:06.672Z,22.50
2018-09-14T10:46:34.994Z,22.60
2018-09-14T10:49:03.127Z,22.80
2018-09-14T10:51:31.441Z,22.80
2018-09-14T10:53:59.558Z,22.60
2018-09-14T10:56:27.660Z,22.60
2018-09-14T10:58:55.773Z,22.70
2018-09-14T11:01:23.873Z,22.70
2018-09-14T11:03:51.975Z,22.80
2018-09-14T11:06:20.062Z,22.90
2018-09-14T11:08:48.193Z,23.10
2018-09-14T11:11:16.305Z,23.20
2018-09-14T11:13:44.401Z,23.30
2018-09-14T11:16:12.535Z,23.30
2018-09-14T11:18:40.686Z,23.40
2018-09-14T11:21:08.766Z,23.60
2018-09-14T11:23:36.855Z,23.70
2018-09-14T11:26:05.034Z,23.70
2018-09-14T11:28:33.146Z,23.80
2018-09-14T11:31:01.234Z,23.90
2018-09-14T11:33:29.342Z,24.00
2018-09-14T11:35:57.659Z,24.00
2018-09-14T11:38:25.856Z,24.00
2018-09-14T11:40:53.846Z,24.00
2018-09-14T11:43:21.941Z,24.00
2018-09-14T11:45:50.062Z,24.10
2018-09-14T11:48:18.168Z,24.20
2018-09-14T11:50:46.268Z,24.30
2018-09-14T11:53:14.369Z,24.30
2018-09-14T11:55:42.485Z,24.30
2018-09-14T11:58:10.594Z,24.40
2018-09-14T12:00:38.976Z,24.60
2018-09-14T12:03:07.294Z,24.60
2018-09-14T12:05:35.405Z,24.50
2018-09-14T12:08:03.498Z,24.70
2018-09-14T12:10:31.616Z,24.80
2018-09-14T12:12:59.702Z,24.90
2018-09-14T12:15:27.798Z,25.00
2018-09-14T12:17:55.890Z,25.20
2018-09-14T12:20:24.002Z,25.30
2018-09-14T12:22:52.118Z,25.50
2018-09-14T12:25:20.311Z,25.50
2018-09-14T12:27:48.410Z,25.60
2018-09-14T12:30:16.506Z,25.70
2018-09-14T12:32:44.606Z,25.70
2018-09-14T12:35:12.690Z,25.70
2018-09-14T12:37:40.778Z,25.80
2018-09-14T12:40:08.887Z,26.00
2018-09-14T12:42:36.966Z,26.20
2018-09-14T12:45:05.066Z,26.20
2018-09-14T12:47:33.163Z,26.40
2018-09-14T12:50:01.255Z,26.50
2018-09-14T12:52:29.666Z,26.40
2018-09-14T12:54:57.754Z,26.40
2018-09-14T12:57:25.838Z,26.20
2018-09-14T12:59:53.926Z,25.90
2018-09-14T13:02:22.010Z,25.80
2018-09-14T13:04:50.107Z,25.50
2018-09-14T13:07:18.187Z,25.20
2018-09-14T13:09:46.277Z,25.00
2018-09-14T13:12:14.374Z,24.90
2018-09-14T13:14:42.531Z,25.00
2018-09-14T13:17:13.034Z,26.20
2018-09-14T13:19:41.315Z,27.80
2018-09-14T13:22:09.794Z,28.90
2018-09-14T13:24:37.882Z,29.50
2018-09-14T13:27:05.990Z,29.80
2018-09-14T13:29:34.319Z,30.40
2018-09-14T13:32:02.405Z,30.90
2018-09-14T13:34:30.496Z,31.10
2018-09-14T13:36:58.578Z,31.30
2018-09-14T13:39:26.670Z,32.50
2018-09-14T13:41:54.753Z,33.50
2018-09-14T13:44:22.852Z,34.30
2018-09-14T13:46:50.957Z,34.20
2018-09-14T13:49:19.034Z,34.30
2018-09-14T13:51:47.165Z,34.20
2018-09-14T13:54:15.250Z,33.60
2018-09-14T13:56:43.391Z,33.20
2018-09-14T13:59:11.473Z,32.80
2018-09-14T14:01:39.627Z,32.60
2018-09-14T14:04:07.644Z,32.60
2018-09-14T14:06:35.737Z,31.60
2018-09-14T14:09:07.222Z,30.80
2018-09-14T14:11:35.315Z,29.90
2018-09-14T14:14:03.397Z,29.70
2018-09-14T14:16:31.505Z,30.20
2018-09-14T14:18:59.570Z,30.40
2018-09-14T14:21:27.859Z,30.40
2018-09-14T14:23:56.070Z,30.50
2018-09-14T14:26:24.154Z,30.00
2018-09-14T14:28:52.281Z,29.70
2018-09-14T14:31:20.369Z,29.40
2018-09-14T14:33:48.534Z,29.10
2018-09-14T14:36:16.702Z,28.70
2018-09-14T14:38:44.769Z,28.50
2018-09-14T14:41:12.920Z,28.50
2018-09-14T14:43:40.946Z,28.50
2018-09-14T14:46:09.058Z,28.60
2018-09-14T14:48:37.446Z,28.70
2018-09-14T14:51:05.544Z,28.60
2018-09-14T14:53:33.633Z,27.90
2018-09-14T14:56:01.800Z,27.30
2018-09-14T14:58:29.814Z,26.70
2018-09-14T15:00:57.897Z,26.50
2018-09-14T15:03:25.998Z,26.50
2018-09-14T15:05:54.100Z,26.60
2018-09-14T15:08:22.186Z,26.50
2018-09-14T15:10:50.364Z,26.50
2018-09-14T15:13:18.366Z,26.40
2018-09-14T15:15:46.458Z,26.30
2018-09-14T15:18:14.547Z,26.40
2018-09-14T15:20:42.638Z,26.60
2018-09-14T15:23:10.718Z,26.40
2018-09-14T15:25:38.802Z,26.10
2018-09-14T15:28:06.902Z,25.90
2018-09-14T15:30:34.998Z,25.70
2018-09-14T15:33:03.086Z,25.50
2018-09-14T15:35:31.178Z,25.30
2018-09-14T15:37:59.314Z,25.30
2018-09-14T15:40:27.402Z,25.30
2018-09-14T15:42:55.494Z,25.50
2018-09-14T15:45:23.578Z,25.40
2018-09-14T15:47:51.672Z,25.40
2018-09-14T15:50:19.941Z,25.20
2018-09-14T15:52:48.027Z,25.00
2018-09-14T15:55:16.118Z,24.90
2018-09-14T15:57:44.287Z,24.80
2018-09-14T16:00:12.308Z,24.80
2018-09-14T16:02:40.558Z,24.80
2018-09-14T16:05:08.634Z,24.70
2018-09-14T16:07:36.733Z,24.50
2018-09-14T16:10:04.818Z,24.50
2018-09-14T16:12:32.915Z,24.50
2018-09-14T16:15:01.010Z,24.40
2018-09-14T16:17:29.103Z,24.40
2018-09-14T16:19:57.195Z,24.30
2018-09-14T16:22:25.295Z,24.10
2018-09-14T16:24:53.397Z,24.00
2018-09-14T16:27:21.549Z,24.00
2018-09-14T16:29:49.647Z,24.00
2018-09-14T16:32:17.761Z,23.90
2018-09-14T16:34:45.866Z,23.90
2018-09-14T16:37:14.072Z,23.80
2018-09-14T16:39:42.118Z,23.80
2018-09-14T16:42:10.213Z,23.80
2018-09-14T16:44:39.873Z,23.80
2018-09-14T16:47:08.184Z,23.80
2018-09-14T16:49:36.301Z,23.70
2018-09-14T16:52:04.386Z,23.60
2018-09-14T16:54:32.470Z,23.70
2018-09-14T16:57:00.746Z,23.60
2018-09-14T16:59:28.828Z,23.50
2018-09-14T17:01:57.092Z,23.50
2018-09-14T17:04:25.214Z,23.40
2018-09-14T17:06:53.386Z,23.30
2018-09-14T17:09:21.474Z,23.20
2018-09-14T17:11:49.558Z,23.10
2018-09-14T17:14:17.642Z,23.10
2018-09-14T17:16:45.739Z,23.10
2018-09-14T17:19:13.838Z,23.00
2018-09-14T17:21:41.933Z,23.00
2018-09-14T17:24:10.006Z,22.90
2018-09-14T17:26:38.106Z,22.90
2018-09-14T17:29:06.221Z,22.90
2018-09-14T17:31:34.309Z,22.90
2018-09-14T17:34:02.516Z,22.80
2018-09-14T17:36:30.626Z,22.70
2018-09-14T17:38:58.705Z,22.80
2018-09-14T17:41:26.794Z,22.80
2018-09-14T17:43:54.875Z,22.80
2018-09-14T17:46:22.985Z,22.90
2018-09-14T17:48:51.070Z,22.80
2018-09-14T17:51:19.154Z,22.80
2018-09-14T17:53:47.256Z,22.80
2018-09-14T17:56:15.355Z,22.80
2018-09-14T17:58:43.450Z,22.70
2018-09-14T18:01:11.541Z,22.70
2018-09-14T18:03:39.643Z,22.60
2018-09-14T18:06:07.717Z,22.60
2018-09-14T18:08:35.818Z,22.50
2018-09-14T18:11:03.902Z,22.50
2018-09-14T18:13:32.006Z,22.40
2018-09-14T18:16:00.090Z,22.40
2018-09-14T18:18:28.608Z,22.30
2018-09-14T18:20:56.686Z,22.30
2018-09-14T18:23:24.795Z,22.20
2018-09-14T18:25:52.918Z,22.20
2018-09-14T18:28:21.121Z,22.20
2018-09-14T18:30:49.218Z,22.10
2018-09-14T18:33:17.342Z,22.00
2018-09-14T18:35:45.445Z,21.90
2018-09-14T18:38:13.582Z,21.90
2018-09-14T18:40:41.662Z,21.80
2018-09-14T18:43:10.237Z,21.80
2018-09-14T18:45:38.330Z,21.80
2018-09-14T18:48:06.443Z,21.70
2018-09-14T18:50:34.523Z,21.70
2018-09-14T18:53:02.675Z,21.70
2018-09-14T18:55:30.822Z,21.60
2018-09-14T18:57:58.935Z,21.60
2018-09-14T19:00:27.646Z,21.50
2018-09-14T19:02:55.912Z,21.50
2018-09-14T19:05:24.087Z,21.50
2018-09-14T19:07:52.128Z,21.40
2018-09-14T19:10:20.227Z,21.40
2018-09-14T19:12:48.593Z,21.30
2018-09-14T19:15:16.675Z,21.30
2018-09-14T19:17:44.962Z,21.40
2018-09-14T19:20:13.049Z,21.30
2018-09-14T19:22:41.137Z,21.30
2018-09-14T19:25:09.240Z,21.20
2018-09-14T19:27:37.387Z,21.20
2018-09-14T19:30:05.426Z,21.10
2018-09-14T19:32:33.574Z,21.10
2018-09-14T19:35:01.666Z,21.00
2018-09-14T19:37:29.746Z,21.00
2018-09-14T19:39:58.091Z,21.00
2018-09-14T19:42:26.174Z,20.90
2018-09-14T19:44:54.303Z,20.90
2018-09-14T19:47:22.391Z,20.90
2018-09-14T19:49:50.505Z,20.80
2018-09-14T19:52:18.607Z,20.80
2018-09-14T19:54:46.710Z,20.90
2018-09-14T19:57:14.846Z,20.80
2018-09-14T19:59:43.078Z,20.80
2018-09-14T20:02:11.178Z,20.80
2018-09-14T20:04:39.257Z,20.70
2018-09-14T20:07:07.377Z,20.70
2018-09-14T20:09:35.454Z,20.70
2018-09-14T20:12:03.542Z,20.70
2018-09-14T20:14:31.622Z,20.70
2018-09-14T20:16:59.718Z,20.70
2018-09-14T20:19:27.815Z,20.70
2018-09-14T20:21:55.916Z,20.60
2018-09-14T20:24:24.198Z,20.60
2018-09-14T20:26:52.298Z,20.70
2018-09-14T20:29:20.421Z,20.60
2018-09-14T20:31:48.487Z,20.60
2018-09-14T20:34:16.571Z,20.60
2018-09-14T20:36:44.666Z,20.60
2018-09-14T20:39:13.357Z,20.60
2018-09-14T20:41:41.439Z,20.60
2018-09-14T20:44:09.530Z,20.60
2018-09-14T20:46:37.627Z,20.60
2018-09-14T20:49:05.711Z,20.50
2018-09-14T20:51:33.810Z,20.40
2018-09-14T20:54:01.902Z,20.30
2018-09-14T20:56:29.981Z,20.30
2018-09-14T20:58:58.078Z,20.20
2018-09-14T21:01:26.170Z,20.10
2018-09-14T21:03:54.256Z,20.00
2018-09-14T21:06:22.354Z,20.00
2018-09-14T21:08:50.447Z,19.90
2018-09-14T21:11:18.554Z,20.00
2018-09-14T21:13:46.653Z,19.90
2018-09-14T21:16:14.750Z,19.90
2018-09-14T21:18:42.870Z,19.90
2018-09-14T21:21:10.954Z,19.80
2018-09-14T21:23:39.050Z,19.80
2018-09-14T21:26:07.178Z,19.70
2018-09-14T21:28:35.281Z,19.70
2018-09-14T21:31:03.375Z,19.70
2018-09-14T21:33:31.470Z,19.80
2018-09-14T21:35:59.558Z,19.80
2018-09-14T21:38:27.661Z,19.80
2018-09-14T21:40:55.747Z,19.80
2018-09-14T21:43:23.833Z,19.80
2018-09-14T21:45:51.918Z,19.80
2018-09-14T21:48:20.060Z,19.70
2018-09-14T21:50:48.134Z,19.70
2018-09-14T21:53:16.230Z,19.70
2018-09-14T21:55:44.310Z,19.60
2018-09-14T21:58:12.409Z,19.60
2018-09-14T22:00:45.769Z,19.50
2018-09-14T22:03:13.900Z,19.50
2018-09-14T22:05:41.991Z,19.50
2018-09-14T22:08:10.091Z,19.50
2018-09-14T22:10:38.182Z,19.50
2018-09-14T22:13:06.385Z,19.50
2018-09-14T22:15:34.478Z,19.50
2018-09-14T22:18:02.622Z,19.50
2018-09-14T22:20:30.701Z,19.50
2018-09-14T22:22:58.811Z,19.40
2018-09-14T22:25:26.903Z,19.30
2018-09-14T22:27:54.993Z,19.30
2018-09-14T22:30:23.107Z,19.20
2018-09-14T22:32:51.185Z,19.20
2018-09-14T22:35:19.493Z,19.20
2018-09-14T22:37:47.535Z,18.30
2018-09-14T22:40:15.636Z,19.10
2018-09-14T22:42:43.738Z,19.10
2018-09-14T22:45:11.833Z,19.10
2018-09-14T22:47:39.914Z,19.20
2018-09-14T22:50:08.021Z,19.20
2018-09-14T22:52:36.156Z,19.20
2018-09-14T22:55:04.254Z,19.30
2018-09-14T22:57:32.342Z,19.30
2018-09-14T23:00:00.454Z,19.30
2018-09-14T23:02:28.541Z,19.30
2018-09-14T23:04:56.661Z,19.20
2018-09-14T23:07:24.743Z,19.20
2018-09-14T23:09:52.891Z,19.10
2018-09-14T23:12:20.978Z,19.10
2018-09-14T23:14:49.073Z,19.00
2018-09-14T23:17:17.321Z,19.00
2018-09-14T23:19:45.413Z,18.90
2018-09-14T23:22:13.514Z,18.90
2018-09-14T23:24:41.583Z,18.80
2018-09-14T23:27:09.682Z,18.80
2018-09-14T23:29:37.774Z,18.80
2018-09-14T23:32:06.067Z,18.70
2018-09-14T23:34:34.154Z,18.60
2018-09-14T23:37:02.260Z,18.60
2018-09-14T23:39:30.346Z,18.50
2018-09-14T23:41:58.470Z,18.40
2018-09-14T23:44:26.549Z,18.40
2018-09-14T23:46:54.657Z,18.40
2018-09-14T23:49:22.758Z,18.30
2018-09-14T23:51:50.841Z,18.30
2018-09-14T23:54:18.929Z,18.40
2018-09-14T23:56:47.026Z,18.40
2018-09-14T23:59:15.109Z,18.40
